Time;durP1;ratioP1;P1;durP2;ratioP2;P2;SDS_P1;SDS_P2;PMS_P1;PMS_P2;Temp;Humidity;BMP_temperature;BMP_pressure;BME280_temperature;BME280_humidity;BME280_pressure;Samples;Min_cycle;Max_cycle;Signal;HPM_P1;HPM_P2
2022/08/07 00:00:30;;;;;;;0.52;0.50;;;26.80;53.20;;;;;;5046444;28;20072;-63
2022/08/07 00:02:57;;;;;;;0.50;0.30;;;26.70;53.10;;;;;;5045918;28;20048;-63
2022/08/07 00:05:26;;;;;;;0.30;0.30;;;26.70;53.10;;;;;;5028452;28;20053;-63
2022/08/07 00:07:55;;;;;;;0.30;0.25;;;26.70;53.00;;;;;;5045796;28;20063;-63
2022/08/07 00:10:29;;;;;;;0.40;0.40;;;26.80;53.10;;;;;;5045866;28;20128;-63
2022/08/07 00:13:00;;;;;;;0.30;0.30;;;26.70;53.00;;;;;;5045393;28;20384;-63
2022/08/07 00:15:36;;;;;;;0.93;0.30;;;26.70;53.00;;;;;;5045661;28;20461;-63
2022/08/07 00:18:19;;;;;;;0.40;0.40;;;26.70;53.00;;;;;;5045968;28;20235;-63
2022/08/07 00:20:54;;;;;;;0.65;0.40;;;26.70;53.00;;;;;;5043787;28;20989;-63
2022/08/07 00:23:29;;;;;;;0.55;0.55;;;26.70;53.00;;;;;;5045180;28;20061;-63
2022/08/07 00:25:57;;;;;;;0.10;0.10;;;26.70;53.00;;;;;;5045507;28;20099;-60
2022/08/07 00:28:40;;;;;;;0.55;0.55;;;26.70;53.00;;;;;;5045469;28;20136;-60
2022/08/07 00:31:21;;;;;;;0.55;0.40;;;26.70;53.00;;;;;;5045712;28;20059;-63
2022/08/07 00:33:48;;;;;;;0.35;0.35;;;26.70;53.00;;;;;;5045220;28;20037;-60
2022/08/07 00:36:15;;;;;;;0.38;0.38;;;26.70;53.00;;;;;;5044180;28;20391;-62
2022/08/07 00:38:43;;;;;;;0.40;0.40;;;26.70;53.00;;;;;;5045010;28;20053;-62
2022/08/07 00:41:10;;;;;;;0.75;0.65;;;26.70;53.00;;;;;;5043853;28;20049;-62
2022/08/07 00:43:42;;;;;;;0.40;0.40;;;26.70;53.00;;;;;;5045284;28;20045;-62
2022/08/07 00:46:29;;;;;;;0.40;0.40;;;26.60;52.90;;;;;;5044908;28;20448;-62
2022/08/07 00:49:01;;;;;;;0.35;0.35;;;26.60;52.90;;;;;;5045487;28;20111;-62
2022/08/07 00:51:30;;;;;;;0.35;0.35;;;26.60;52.90;;;;;;5045519;28;20640;-62
2022/08/07 00:54:17;;;;;;;0.47;0.45;;;26.60;52.90;;;;;;5041106;28;20302;-60
2022/08/07 00:56:46;;;;;;;0.40;0.40;;;26.60;52.90;;;;;;5044585;28;20049;-60
2022/08/07 00:59:17;;;;;;;0.45;0.32;;;26.60;52.90;;;;;;5045334;28;20040;-60
2022/08/07 01:01:58;;;;;;;0.60;0.55;;;26.60;53.50;;;;;;5044255;28;20135;-60
2022/08/07 01:04:26;;;;;;;0.30;0.30;;;26.60;52.90;;;;;;5045200;28;20216;-60
2022/08/07 01:06:58;;;;;;;0.40;0.40;;;26.60;52.90;;;;;;5045284;28;20098;-60
2022/08/07 01:09:26;;;;;;;0.40;0.40;;;26.60;52.90;;;;;;5044836;28;20079;-60
2022/08/07 01:12:15;;;;;;;0.82;0.50;;;26.60;53.00;;;;;;5044776;28;20112;-60
2022/08/07 01:14:58;;;;;;;0.40;0.40;;;26.60;52.90;;;;;;5044784;28;20555;-60
2022/08/07 01:17:28;;;;;;;0.55;0.50;;;26.60;52.90;;;;;;5044653;28;20097;-61
2022/08/07 01:20:04;;;;;;;0.40;0.40;;;26.60;52.90;;;;;;5044969;28;20044;-62
2022/08/07 01:22:38;;;;;;;0.98;0.38;;;26.60;53.50;;;;;;5044567;28;20316;-60
2022/08/07 01:25:20;;;;;;;0.40;0.40;;;26.60;52.90;;;;;;5041015;28;20053;-60
2022/08/07 01:28:07;;;;;;;0.40;0.40;;;26.60;52.90;;;;;;5045398;28;20084;-64
2022/08/07 01:30:38;;;;;;;0.65;0.40;;;26.60;52.90;;;;;;5045438;28;20076;-62
2022/08/07 01:33:08;;;;;;;0.88;0.45;;;26.60;52.90;;;;;;5044404;28;20041;-63
2022/08/07 01:35:35;;;;;;;0.55;0.47;;;26.60;52.90;;;;;;5044647;28;20118;-60
2022/08/07 01:38:21;;;;;;;0.63;0.55;;;26.60;52.90;;;;;;5048934;28;20139;-60
2022/08/07 01:40:59;;;;;;;0.50;0.38;;;26.60;52.90;;;;;;5048119;28;20053;-60
2022/08/07 01:43:27;;;;;;;0.35;0.32;;;26.60;52.90;;;;;;5048551;28;20102;-60
2022/08/07 01:46:05;;;;;;;3.30;0.50;;;26.60;52.90;;;;;;5047992;28;20677;-60
2022/08/07 01:48:41;;;;;;;0.40;0.40;;;26.60;52.90;;;;;;5047365;28;20131;-60
2022/08/07 01:51:17;;;;;;;0.40;0.40;;;26.60;52.90;;;;;;5047793;28;20060;-63
2022/08/07 01:54:09;;;;;;;0.38;0.38;;;26.60;52.90;;;;;;5034309;28;20200;-62
2022/08/07 01:57:22;;;;;;;0.60;0.60;;;26.60;52.90;;;;;;5042899;28;20053;-63
2022/08/07 02:00:04;;;;;;;0.52;0.52;;;26.60;52.90;;;;;;5048164;28;20571;-63
2022/08/07 02:02:52;;;;;;;0.68;0.68;;;26.60;52.90;;;;;;5048428;28;20581;-60
2022/08/07 02:05:57;;;;;;;0.60;0.60;;;26.60;52.90;;;;;;5047881;28;20709;-60
2022/08/07 02:08:28;;;;;;;0.45;0.45;;;26.60;52.90;;;;;;5047016;28;20067;-60
2022/08/07 02:10:58;;;;;;;0.43;0.43;;;26.60;52.90;;;;;;5047112;28;20081;-60
2022/08/07 02:13:30;;;;;;;0.57;0.50;;;26.50;52.90;;;;;;5048693;28;20049;-60
2022/08/07 02:16:18;;;;;;;0.50;0.50;;;26.60;52.90;;;;;;5046715;28;20133;-60
2022/08/07 02:19:04;;;;;;;0.50;0.50;;;26.50;53.40;;;;;;5048055;28;20049;-60
2022/08/07 02:21:53;;;;;;;0.32;0.32;;;26.50;52.90;;;;;;5046533;28;20056;-60
2022/08/07 02:24:26;;;;;;;0.30;0.30;;;26.50;52.90;;;;;;5047305;28;20048;-60
2022/08/07 02:26:58;;;;;;;0.30;0.30;;;26.50;52.90;;;;;;5045994;28;20053;-60
2022/08/07 02:29:27;;;;;;;0.60;0.60;;;26.50;52.90;;;;;;5044735;28;20091;-60
2022/08/07 02:31:56;;;;;;;0.37;0.37;;;26.50;52.90;;;;;;5047901;28;20137;-60
2022/08/07 02:34:26;;;;;;;0.50;0.50;;;26.50;52.90;;;;;;5047015;28;20045;-61
2022/08/07 02:36:56;;;;;;;0.30;0.30;;;26.50;52.90;;;;;;5047607;28;20072;-62
2022/08/07 02:39:25;;;;;;;0.88;0.50;;;26.50;52.90;;;;;;5047739;28;20077;-62
2022/08/07 02:42:13;;;;;;;1.15;0.70;;;26.50;52.90;;;;;;5047289;28;20072;-63
2022/08/07 02:44:45;;;;;;;0.52;0.52;;;26.50;52.90;;;;;;5047940;28;20045;-62
2022/08/07 02:47:17;;;;;;;1.27;0.50;;;26.50;52.90;;;;;;5045173;28;20272;-63
2022/08/07 02:50:05;;;;;;;0.50;0.50;;;26.50;52.90;;;;;;5047426;28;20155;-62
2022/08/07 02:52:41;;;;;;;1.05;0.93;;;26.50;52.90;;;;;;5046907;28;20593;-63
2022/08/07 02:55:22;;;;;;;0.40;0.40;;;26.50;52.90;;;;;;5047752;28;20049;-63
2022/08/07 02:58:12;;;;;;;0.50;0.50;;;26.50;52.90;;;;;;5047010;28;20429;-62
2022/08/07 03:00:42;;;;;;;0.70;0.70;;;26.50;52.80;;;;;;5042621;28;20041;-63
2022/08/07 03:03:16;;;;;;;0.50;0.40;;;26.50;52.90;;;;;;5046124;28;20485;-63
2022/08/07 03:05:51;;;;;;;1.67;0.50;;;26.50;52.90;;;;;;5046518;28;20455;-63
2022/08/07 03:08:20;;;;;;;1.63;0.43;;;26.50;52.80;;;;;;5047763;28;20051;-63
2022/08/07 03:10:56;;;;;;;0.68;0.68;;;26.50;52.80;;;;;;5046515;28;20052;-63
2022/08/07 03:13:24;;;;;;;1.35;0.70;;;26.50;52.80;;;;;;5046832;28;20244;-63
2022/08/07 03:15:53;;;;;;;0.60;0.60;;;26.50;52.80;;;;;;5046498;28;20468;-63
2022/08/07 03:18:26;;;;;;;0.60;0.60;;;26.50;52.80;;;;;;5046988;28;20045;-63
2022/08/07 03:21:04;;;;;;;0.50;0.50;;;26.50;52.80;;;;;;5047253;28;20045;-63
2022/08/07 03:23:38;;;;;;;0.52;0.47;;;26.50;52.80;;;;;;5045019;28;20052;-63
2022/08/07 03:26:29;;;;;;;0.50;0.50;;;26.50;52.80;;;;;;5047304;28;20122;-62
2022/08/07 03:29:00;;;;;;;0.60;0.60;;;26.50;52.80;;;;;;5045587;28;20084;-60
2022/08/07 03:31:30;;;;;;;0.65;0.52;;;26.50;52.80;;;;;;5040291;28;20135;-61
2022/08/07 03:34:13;;;;;;;0.63;0.63;;;26.50;52.70;;;;;;5046223;28;20525;-63
2022/08/07 03:36:51;;;;;;;1.02;0.63;;;26.50;52.80;;;;;;5044698;28;20111;-62
2022/08/07 03:39:21;;;;;;;0.40;0.40;;;26.50;52.70;;;;;;5046801;28;20049;-63
2022/08/07 03:42:10;;;;;;;0.60;0.60;;;26.50;53.30;;;;;;5046237;28;20048;-63
2022/08/07 03:44:38;;;;;;;0.60;0.60;;;26.50;52.70;;;;;;5045154;28;20056;-63
2022/08/07 03:47:07;;;;;;;0.73;0.38;;;26.50;52.70;;;;;;5045225;28;20041;-60
2022/08/07 03:49:41;;;;;;;0.60;0.60;;;26.50;52.70;;;;;;5046231;28;20056;-60
2022/08/07 03:52:21;;;;;;;0.68;0.50;;;26.50;52.70;;;;;;5045885;28;20061;-60
2022/08/07 03:55:00;;;;;;;0.55;0.55;;;26.50;52.70;;;;;;5045683;28;20049;-60
2022/08/07 03:57:34;;;;;;;0.50;0.50;;;26.50;52.70;;;;;;5044902;28;20048;-63
2022/08/07 04:00:23;;;;;;;0.50;0.50;;;26.50;52.70;;;;;;5044242;28;20091;-62
2022/08/07 04:02:58;;;;;;;0.50;0.50;;;26.50;52.60;;;;;;5042245;28;20059;-63
2022/08/07 04:05:30;;;;;;;0.57;0.50;;;26.50;52.60;;;;;;5043998;28;20072;-63
2022/08/07 04:08:13;;;;;;;1.10;0.65;;;26.50;52.60;;;;;;5045336;28;20051;-63
2022/08/07 04:10:46;;;;;;;0.60;0.60;;;26.50;52.60;;;;;;5045351;28;20205;-63
2022/08/07 04:13:34;;;;;;;0.73;0.52;;;26.50;52.50;;;;;;5031502;28;20071;-63
2022/08/07 04:16:22;;;;;;;0.70;0.70;;;26.50;52.50;;;;;;5044429;28;20056;-63
2022/08/07 04:18:58;;;;;;;0.50;0.50;;;26.50;52.40;;;;;;5044795;28;20414;-63
2022/08/07 04:21:31;;;;;;;0.55;0.55;;;26.50;52.40;;;;;;5045344;28;20075;-62
2022/08/07 04:24:00;;;;;;;0.70;0.70;;;26.50;52.40;;;;;;5045475;28;20486;-63
2022/08/07 04:26:34;;;;;;;0.40;0.40;;;26.50;52.30;;;;;;5045464;28;20289;-63
2022/08/07 04:29:01;;;;;;;0.77;0.77;;;26.50;52.30;;;;;;5045996;28;20045;-63
2022/08/07 04:31:30;;;;;;;0.70;0.70;;;26.50;52.30;;;;;;5045433;28;20449;-62
2022/08/07 04:34:17;;;;;;;0.50;0.50;;;26.60;52.30;;;;;;5040875;28;20055;-62
2022/08/07 04:36:59;;;;;;;0.80;0.60;;;26.60;52.20;;;;;;5044871;28;20045;-62
2022/08/07 04:39:28;;;;;;;0.60;0.60;;;26.60;52.10;;;;;;5045580;28;20224;-62
2022/08/07 04:42:02;;;;;;;1.05;0.70;;;26.60;52.00;;;;;;5044970;28;20049;-63
2022/08/07 04:44:30;;;;;;;0.63;0.63;;;26.60;52.00;;;;;;5045375;28;20099;-62
2022/08/07 04:47:15;;;;;;;0.70;0.70;;;26.70;52.00;;;;;;5044939;28;20407;-63
2022/08/07 04:50:13;;;;;;;0.70;0.70;;;26.70;51.90;;;;;;5044461;28;20080;-60
2022/08/07 04:52:52;;;;;;;0.50;0.43;;;26.70;51.80;;;;;;5044145;28;20387;-60
2022/08/07 04:55:33;;;;;;;1.33;1.13;;;26.70;51.70;;;;;;5044400;28;20048;-60
2022/08/07 04:58:45;;;;;;;1.00;1.00;;;26.80;51.70;;;;;;5045340;28;20278;-60
2022/08/07 05:01:56;;;;;;;1.63;0.68;;;26.80;51.60;;;;;;5045156;28;20180;-60
2022/08/07 05:04:52;;;;;;;0.50;0.50;;;26.80;51.50;;;;;;5044077;28;20053;-60
2022/08/07 05:07:28;;;;;;;0.57;0.57;;;26.90;51.40;;;;;;5041565;28;20113;-60
2022/08/07 05:10:15;;;;;;;0.70;0.70;;;26.90;51.10;;;;;;5044444;28;20128;-62
2022/08/07 05:12:56;;;;;;;0.70;0.70;;;26.80;51.00;;;;;;5048112;28;20060;-62
2022/08/07 05:15:48;;;;;;;0.80;0.80;;;26.70;51.10;;;;;;5049179;28;20076;-65
2022/08/07 05:18:26;;;;;;;1.20;1.10;;;26.50;51.10;;;;;;5048712;28;20466;-63
2022/08/07 05:21:00;;;;;;;0.85;0.85;;;26.30;51.40;;;;;;5049353;28;20099;-62
2022/08/07 05:23:35;;;;;;;1.25;1.20;;;26.10;51.70;;;;;;5049083;28;20140;-62
2022/08/07 05:26:04;;;;;;;1.00;0.90;;;25.80;51.30;;;;;;5048797;28;20502;-62
2022/08/07 05:28:41;;;;;;;1.30;1.20;;;25.50;50.80;;;;;;5048425;28;20136;-62
2022/08/07 05:31:19;;;;;;;1.30;1.30;;;25.10;50.50;;;;;;5048382;28;20081;-62
2022/08/07 05:33:50;;;;;;;1.42;1.00;;;24.80;50.30;;;;;;5048497;28;20053;-63
2022/08/07 05:36:33;;;;;;;1.27;1.10;;;24.40;49.70;;;;;;5047175;28;20044;-63
2022/08/07 05:39:02;;;;;;;1.10;1.10;;;24.00;50.20;;;;;;5045662;28;20087;-62
2022/08/07 05:41:50;;;;;;;1.50;1.40;;;23.70;50.20;;;;;;5048593;28;20080;-62
2022/08/07 05:44:34;;;;;;;1.40;1.30;;;23.30;50.40;;;;;;5047187;28;20044;-62
2022/08/07 05:47:01;;;;;;;1.50;1.42;;;23.00;50.00;;;;;;5047923;28;20099;-62
2022/08/07 05:49:51;;;;;;;1.65;1.55;;;22.70;50.10;;;;;;5048556;28;20056;-62
2022/08/07 05:52:19;;;;;;;2.50;1.40;;;22.40;50.50;;;;;;5048457;28;20053;-62
2022/08/07 05:54:58;;;;;;;1.50;1.40;;;22.20;51.60;;;;;;5048666;28;20449;-62
2022/08/07 05:57:38;;;;;;;1.30;1.20;;;21.90;51.20;;;;;;5047916;28;20657;-62
2022/08/07 06:00:10;;;;;;;1.30;1.30;;;21.80;51.90;;;;;;5047630;28;20080;-62
2022/08/07 06:02:46;;;;;;;1.70;1.60;;;21.60;52.40;;;;;;5047600;28;20451;-62
2022/08/07 06:05:14;;;;;;;2.05;1.88;;;21.50;53.30;;;;;;5048620;28;20514;-62
2022/08/07 06:07:43;;;;;;;1.50;1.40;;;21.40;53.50;;;;;;5048445;28;20106;-63
2022/08/07 06:10:30;;;;;;;1.50;1.40;;;21.30;53.50;;;;;;5043581;28;20226;-62
2022/08/07 06:13:00;;;;;;;1.95;1.85;;;21.30;53.70;;;;;;5048076;28;20048;-62
2022/08/07 06:15:29;;;;;;;1.67;1.58;;;21.20;54.00;;;;;;5047932;28;20048;-62
2022/08/07 06:18:12;;;;;;;1.70;1.60;;;21.20;54.20;;;;;;5046764;28;20048;-62
2022/08/07 06:20:42;;;;;;;1.45;1.35;;;21.10;54.30;;;;;;5048004;28;20045;-62
2022/08/07 06:23:31;;;;;;;2.08;1.88;;;21.10;54.40;;;;;;5047261;28;20053;-62
2022/08/07 06:26:19;;;;;;;2.10;1.67;;;21.10;54.50;;;;;;5047099;28;20073;-62
2022/08/07 06:28:51;;;;;;;2.85;2.22;;;21.00;54.60;;;;;;5047723;28;20055;-62
2022/08/07 06:31:19;;;;;;;2.20;2.10;;;21.10;54.90;;;;;;5047985;28;20417;-62
2022/08/07 06:34:04;;;;;;;2.22;2.13;;;21.00;55.20;;;;;;5047209;28;20152;-63
2022/08/07 06:36:31;;;;;;;1.90;1.73;;;21.00;55.20;;;;;;5047962;28;20709;-62
2022/08/07 06:39:01;;;;;;;2.08;1.90;;;21.00;55.30;;;;;;5047286;28;20053;-63
2022/08/07 06:42:13;;;;;;;2.00;1.90;;;21.00;55.20;;;;;;5042822;28;20324;-62
2022/08/07 06:44:43;;;;;;;1.83;1.73;;;21.00;55.30;;;;;;5046945;28;20103;-63
2022/08/07 06:47:18;;;;;;;2.20;2.10;;;21.00;55.50;;;;;;5047148;28;20068;-62
2022/08/07 06:49:47;;;;;;;1.90;1.80;;;21.10;55.50;;;;;;5046898;28;20051;-62
2022/08/07 06:52:19;;;;;;;2.05;1.95;;;21.00;55.50;;;;;;5046283;28;20109;-62
2022/08/07 06:55:07;;;;;;;2.72;2.00;;;21.10;55.40;;;;;;5047229;28;20075;-63
2022/08/07 06:57:58;;;;;;;2.28;2.10;;;21.00;55.50;;;;;;5047043;28;20080;-63
2022/08/07 07:00:31;;;;;;;1.90;1.80;;;21.00;55.70;;;;;;5047212;28;20041;-62
2022/08/07 07:02:59;;;;;;;2.55;2.17;;;21.00;55.80;;;;;;5047120;28;20473;-62
2022/08/07 07:05:34;;;;;;;2.05;1.92;;;21.00;55.40;;;;;;5047183;28;20076;-62
2022/08/07 07:08:29;;;;;;;1.90;1.80;;;20.90;55.40;;;;;;5046640;28;20424;-62
2022/08/07 07:11:00;;;;;;;2.40;2.13;;;20.90;55.40;;;;;;5046036;28;20287;-62
2022/08/07 07:13:46;;;;;;;2.15;2.05;;;20.90;55.40;;;;;;5043806;28;20127;-62
2022/08/07 07:16:29;;;;;;;2.38;1.95;;;20.90;55.40;;;;;;5046552;28;20128;-62
2022/08/07 07:19:05;;;;;;;2.40;2.20;;;20.90;55.70;;;;;;5046667;28;20110;-62
2022/08/07 07:21:54;;;;;;;2.13;2.03;;;20.90;55.50;;;;;;5047038;28;20304;-62
2022/08/07 07:24:42;;;;;;;2.42;2.10;;;20.80;55.70;;;;;;5046791;28;20428;-62
2022/08/07 07:27:35;;;;;;;2.58;2.38;;;20.80;55.80;;;;;;5046061;28;20057;-68
2022/08/07 07:30:28;;;;;;;2.20;2.10;;;20.80;55.70;;;;;;5045937;28;20197;-62
2022/08/07 07:33:06;;;;;;;2.28;2.17;;;20.80;55.70;;;;;;5046594;28;20448;-63
2022/08/07 07:35:35;;;;;;;2.72;2.53;;;20.70;55.90;;;;;;5045653;28;20449;-62
2022/08/07 07:38:24;;;;;;;3.95;2.20;;;20.70;55.70;;;;;;5046881;28;20778;-62
2022/08/07 07:40:59;;;;;;;2.60;2.40;;;20.70;56.00;;;;;;5045740;28;20513;-62
2022/08/07 07:43:31;;;;;;;3.10;2.83;;;20.70;56.10;;;;;;5042003;28;20059;-62
2022/08/07 07:46:21;;;;;;;2.50;2.30;;;20.70;56.10;;;;;;5045824;28;20107;-62
2022/08/07 07:49:10;;;;;;;2.60;2.40;;;20.70;55.90;;;;;;5045296;28;20068;-65
2022/08/07 07:51:58;;;;;;;1.90;1.80;;;20.70;56.00;;;;;;5045017;28;20041;-62
2022/08/07 07:54:27;;;;;;;2.42;2.25;;;20.60;56.30;;;;;;5044899;28;20122;-62
2022/08/07 07:56:56;;;;;;;2.28;2.17;;;20.60;56.60;;;;;;5045523;28;20501;-62
2022/08/07 07:59:25;;;;;;;2.38;2.10;;;20.60;56.90;;;;;;5045738;28;20135;-62
2022/08/07 08:02:14;;;;;;;2.28;2.08;;;20.60;56.80;;;;;;5046219;28;20045;-62
2022/08/07 08:05:04;;;;;;;2.28;2.17;;;20.60;57.10;;;;;;5045418;28;20049;-62
2022/08/07 08:07:41;;;;;;;2.35;2.25;;;20.70;57.60;;;;;;5046281;28;20049;-62
2022/08/07 08:10:29;;;;;;;2.25;2.15;;;20.70;57.60;;;;;;5045593;28;20053;-62
2022/08/07 08:13:05;;;;;;;4.32;2.08;;;20.70;57.40;;;;;;5045676;28;20048;-62
2022/08/07 08:15:38;;;;;;;2.17;2.08;;;20.70;57.60;;;;;;5040847;28;20417;-62
2022/08/07 08:18:27;;;;;;;2.35;2.15;;;20.70;57.40;;;;;;5045480;28;20613;-61
2022/08/07 08:20:55;;;;;;;2.50;2.30;;;20.70;57.30;;;;;;5045867;28;20110;-62
2022/08/07 08:29:03;;;;;;;2.17;2.08;;;20.60;57.60;;;;;;5045830;28;20047;-62
2022/08/07 08:31:34;;;;;;;3.63;2.22;;;20.70;57.80;;;;;;5045515;28;20049;-62
2022/08/07 08:34:23;;;;;;;2.05;1.88;;;20.70;58.00;;;;;;5044609;28;20049;-62
2022/08/07 08:36:56;;;;;;;2.45;2.25;;;20.70;58.10;;;;;;5045635;28;20289;-62
2022/08/07 08:39:27;;;;;;;2.33;2.10;;;20.70;58.00;;;;;;5045755;28;20087;-62
2022/08/07 08:42:40;;;;;;;2.50;2.35;;;20.70;57.90;;;;;;5044936;28;20053;-62
2022/08/07 08:45:32;;;;;;;2.35;2.25;;;20.70;57.70;;;;;;5045716;28;20135;-62
2022/08/07 08:48:45;;;;;;;2.22;2.05;;;20.70;57.80;;;;;;5042207;28;20049;-62
2022/08/07 08:51:40;;;;;;;2.30;2.15;;;20.60;57.80;;;;;;5045200;28;20493;-62
2022/08/07 08:54:33;;;;;;;2.22;2.03;;;20.70;58.40;;;;;;5045138;28;20080;-62
2022/08/07 08:57:07;;;;;;;2.90;2.30;;;20.70;58.10;;;;;;5045492;28;20652;-62
2022/08/07 09:00:01;;;;;;;2.60;2.40;;;20.70;58.30;;;;;;5044951;28;20123;-63
2022/08/07 09:02:51;;;;;;;2.38;2.17;;;20.70;58.30;;;;;;5045373;28;20378;-62
2022/08/07 09:05:51;;;;;;;2.30;2.20;;;20.80;58.20;;;;;;5044407;28;20041;-62
2022/08/07 09:08:40;;;;;;;2.38;2.25;;;20.80;58.30;;;;;;5045394;28;20132;-62
2022/08/07 09:11:32;;;;;;;2.92;2.45;;;20.80;58.20;;;;;;5044710;28;20099;-62
2022/08/07 09:14:32;;;;;;;2.33;2.22;;;20.80;58.00;;;;;;5045304;28;20053;-62
2022/08/07 09:17:38;;;;;;;3.20;2.50;;;20.80;58.20;;;;;;5044836;28;20099;-62
2022/08/07 09:20:41;;;;;;;2.60;2.40;;;20.90;58.20;;;;;;5044332;28;20417;-62
2022/08/07 09:24:00;;;;;;;4.05;2.40;;;20.90;58.20;;;;;;5045137;28;20131;-64
2022/08/07 09:27:21;;;;;;;2.75;2.55;;;20.90;58.40;;;;;;5044244;28;20375;-62
2022/08/07 09:30:09;;;;;;;3.08;2.83;;;20.90;58.50;;;;;;5044785;28;20223;-62
2022/08/07 09:33:16;;;;;;;2.20;2.08;;;20.90;58.40;;;;;;5045205;28;20110;-62
2022/08/07 09:36:14;;;;;;;2.40;2.20;;;20.90;58.20;;;;;;5043959;28;20041;-62
2022/08/07 09:39:17;;;;;;;2.60;2.40;;;20.90;58.60;;;;;;5045129;28;20544;-62
2022/08/07 09:42:43;;;;;;;3.30;3.10;;;21.00;58.30;;;;;;5044373;28;20080;-62
2022/08/07 09:45:42;;;;;;;6.30;2.95;;;21.00;58.50;;;;;;5044921;28;20465;-62
2022/08/07 09:49:08;;;;;;;2.42;2.33;;;20.90;58.40;;;;;;5044570;28;20084;-62
2022/08/07 09:52:20;;;;;;;2.53;2.33;;;21.00;58.40;;;;;;5043365;28;20122;-62
2022/08/07 09:55:32;;;;;;;2.55;2.35;;;21.00;59.00;;;;;;5043138;28;20100;-62
2022/08/07 09:58:48;;;;;;;3.78;2.28;;;21.10;58.40;;;;;;5047358;28;20084;-62
2022/08/07 10:01:35;;;;;;;2.53;2.33;;;21.10;58.20;;;;;;5047798;28;20496;-62
2022/08/07 10:04:52;;;;;;;2.88;2.60;;;21.10;57.70;;;;;;5048736;28;20053;-62
2022/08/07 10:08:02;;;;;;;2.63;2.42;;;21.10;57.30;;;;;;5047518;28;20127;-62
2022/08/07 10:11:03;;;;;;;2.53;2.33;;;21.00;57.30;;;;;;5048415;28;20045;-62
2022/08/07 10:14:02;;;;;;;;;;;21.00;57.40;;;;;;5047610;28;20349;-62
2022/08/07 10:17:11;;;;;;;2.65;2.45;;;21.00;57.00;;;;;;5048693;28;19921;-62
2022/08/07 10:19:47;;;;;;;;;;;21.00;57.00;;;;;;5047565;28;20057;-62
2022/08/07 10:22:51;;;;;;;3.15;2.60;;;20.90;56.80;;;;;;5043841;28;20336;-62
2022/08/07 10:25:32;;;;;;;3.15;2.83;;;20.90;57.00;;;;;;5047637;28;20530;-62
2022/08/07 10:28:49;;;;;;;2.33;2.13;;;20.70;56.60;;;;;;5047445;28;20405;-62
2022/08/07 10:31:55;;;;;;;3.05;2.85;;;20.70;56.40;;;;;;5046089;28;20529;-62
2022/08/07 10:35:01;;;;;;;2.80;2.45;;;20.70;56.30;;;;;;5047779;28;20056;-62
2022/08/07 10:37:59;;;;;;;3.08;2.88;;;20.60;56.00;;;;;;5047208;28;20049;-62
2022/08/07 10:40:52;;;;;;;2.75;2.50;;;20.50;56.40;;;;;;5048023;28;20500;-62
2022/08/07 10:43:32;;;;;;;2.75;2.55;;;20.40;56.50;;;;;;5047080;28;20045;-62
2022/08/07 10:46:08;;;;;;;2.78;2.58;;;20.40;56.70;;;;;;5047972;28;20049;-62
2022/08/07 10:48:49;;;;;;;2.72;2.53;;;20.40;56.80;;;;;;5046222;28;20045;-62
2022/08/07 10:51:22;;;;;;;3.08;2.88;;;20.30;56.80;;;;;;5048015;28;20049;-62
2022/08/07 10:54:36;;;;;;;2.47;2.28;;;20.30;56.90;;;;;;5042416;28;20517;-62
2022/08/07 10:57:26;;;;;;;3.15;2.85;;;20.30;56.70;;;;;;5045815;28;20083;-62
2022/08/07 11:00:12;;;;;;;2.90;2.70;;;20.30;56.60;;;;;;5046678;28;20084;-62
2022/08/07 11:03:13;;;;;;;2.88;2.67;;;20.30;56.90;;;;;;5047289;28;20069;-62
2022/08/07 11:06:01;;;;;;;4.35;2.72;;;20.30;57.00;;;;;;5046610;28;20044;-63
2022/08/07 11:08:44;;;;;;;2.90;2.70;;;20.30;57.30;;;;;;5046890;28;20045;-62
2022/08/07 11:11:32;;;;;;;3.58;3.25;;;20.30;57.30;;;;;;5046850;28;20559;-62
2022/08/07 11:14:14;;;;;;;4.57;2.92;;;20.30;57.50;;;;;;5046492;28;20330;-62
2022/08/07 11:17:18;;;;;;;2.55;2.35;;;20.30;57.60;;;;;;5047320;28;20040;-63
2022/08/07 11:20:18;;;;;;;3.28;2.97;;;20.30;57.70;;;;;;5046519;28;20045;-63
2022/08/07 11:23:01;;;;;;;3.58;2.85;;;20.30;57.50;;;;;;5047377;28;20045;-62
2022/08/07 11:25:40;;;;;;;;;;;20.30;57.50;;;;;;5042402;28;20425;-62
2022/08/07 11:28:33;;;;;;;3.33;3.00;;;20.30;57.30;;;;;;5045994;28;19921;-62
2022/08/07 11:31:21;;;;;;;3.65;3.25;;;20.40;57.20;;;;;;5046669;28;20048;-62
2022/08/07 11:34:05;;;;;;;3.17;2.88;;;20.40;57.20;;;;;;5046261;28;20045;-62
2022/08/07 11:36:58;;;;;;;3.03;2.83;;;20.40;57.20;;;;;;5045481;28;20211;-62
2022/08/07 11:39:58;;;;;;;3.15;2.95;;;20.40;57.20;;;;;;5046360;28;20052;-63
2022/08/07 11:42:51;;;;;;;3.55;3.25;;;20.50;57.60;;;;;;5046417;28;20051;-63
2022/08/07 11:45:59;;;;;;;4.03;3.30;;;20.50;57.50;;;;;;5044688;28;20040;-62
2022/08/07 11:48:58;;;;;;;2.90;2.70;;;20.50;57.40;;;;;;5046553;28;20049;-62
2022/08/07 11:52:23;;;;;;;3.55;3.25;;;20.60;57.60;;;;;;5046600;28;20341;-62
2022/08/07 11:55:31;;;;;;;3.10;2.80;;;20.60;57.70;;;;;;5045071;28;20045;-62
2022/08/07 11:58:35;;;;;;;3.13;2.90;;;20.60;57.70;;;;;;5041479;28;20102;-62
2022/08/07 12:01:36;;;;;;;3.80;3.25;;;20.70;58.00;;;;;;5046191;28;20045;-62
2022/08/07 12:04:50;;;;;;;3.33;3.00;;;20.70;57.90;;;;;;5045472;28;20444;-62
2022/08/07 12:07:37;;;;;;;2.88;2.67;;;20.70;58.00;;;;;;5045820;28;20049;-62
2022/08/07 12:10:38;;;;;;;3.58;3.28;;;20.70;58.00;;;;;;5027724;28;20472;-62
2022/08/07 12:13:31;;;;;;;3.60;3.30;;;20.80;57.70;;;;;;5024730;28;20107;-62
2022/08/07 12:16:10;;;;;;;3.80;3.50;;;20.80;57.80;;;;;;5026181;28;20050;-62
2022/08/07 12:19:13;;;;;;;3.92;3.42;;;20.80;57.80;;;;;;5056415;28;20418;-62
2022/08/07 12:22:05;;;;;;;3.10;2.75;;;20.90;57.90;;;;;;5025745;28;20438;-62
2022/08/07 12:28:24;;;;;;;3.25;3.00;;;20.90;58.30;;;;;;5045659;28;20140;-62
2022/08/07 12:31:08;;;;;;;3.92;2.95;;;21.00;58.80;;;;;;5024346;28;20053;-61
2022/08/07 12:33:44;;;;;;;3.42;3.13;;;21.00;58.60;;;;;;5045340;28;20115;-61
2022/08/07 12:36:29;;;;;;;3.67;3.10;;;21.00;58.40;;;;;;5045504;28;20232;-61
2022/08/07 12:39:03;;;;;;;5.97;2.97;;;21.10;58.50;;;;;;5045219;28;20045;-61
2022/08/07 12:41:52;;;;;;;3.60;3.30;;;21.10;58.70;;;;;;5045188;28;20572;-61
2022/08/07 12:44:20;;;;;;;3.63;3.33;;;21.10;58.40;;;;;;5033184;28;20482;-61
2022/08/07 12:47:17;;;;;;;3.42;3.13;;;21.20;58.50;;;;;;5032585;28;20048;-61
2022/08/07 12:50:21;;;;;;;3.67;3.38;;;21.30;58.30;;;;;;5051238;28;20481;-61
2022/08/07 12:53:18;;;;;;;3.67;3.33;;;21.40;58.30;;;;;;5047513;28;20528;-61
2022/08/07 12:56:00;;;;;;;4.20;3.90;;;21.40;58.50;;;;;;5044263;28;20050;-61
2022/08/07 12:58:36;;;;;;;4.15;3.53;;;21.40;58.40;;;;;;5063932;28;20493;-61
2022/08/07 13:01:15;;;;;;;3.60;3.30;;;21.40;58.20;;;;;;5060681;28;20505;-61
2022/08/07 13:04:22;;;;;;;3.88;3.53;;;21.40;58.20;;;;;;5065192;28;20048;-61
2022/08/07 13:07:34;;;;;;;3.50;3.20;;;21.50;58.40;;;;;;5065448;28;20182;-62
2022/08/07 13:10:59;;;;;;;3.55;3.22;;;21.50;58.30;;;;;;5064656;28;20052;-65
2022/08/07 13:14:01;;;;;;;3.70;3.40;;;21.40;58.30;;;;;;5064622;28;20044;-61
2022/08/07 13:16:55;;;;;;;3.70;3.40;;;21.50;58.10;;;;;;5065214;28;20045;-61
2022/08/07 13:19:51;;;;;;;3.13;2.92;;;21.50;58.10;;;;;;5064896;28;20052;-61
2022/08/07 13:22:30;;;;;;;3.80;3.38;;;21.50;58.00;;;;;;5049137;28;20551;-61
2022/08/07 13:25:23;;;;;;;3.80;3.40;;;21.60;58.30;;;;;;5045077;28;20053;-61
2022/08/07 13:28:09;;;;;;;3.67;3.33;;;21.50;58.20;;;;;;5045155;28;20064;-62
2022/08/07 13:30:46;;;;;;;3.60;3.30;;;21.60;58.30;;;;;;5044892;28;20055;-61
2022/08/07 13:33:28;;;;;;;4.50;3.90;;;21.60;58.40;;;;;;5043020;28;20065;-61
2022/08/07 13:36:24;;;;;;;4.32;3.70;;;21.60;58.20;;;;;;5047478;28;20541;-61
2022/08/07 13:39:06;;;;;;;3.72;3.20;;;21.60;58.20;;;;;;5048984;28;20138;-61
2022/08/07 13:41:44;;;;;;;4.22;3.83;;;21.70;58.00;;;;;;5048904;28;20045;-61
2022/08/07 13:44:25;;;;;;;3.95;3.63;;;21.70;58.00;;;;;;5049196;28;20049;-61
2022/08/07 13:47:04;;;;;;;3.55;3.28;;;21.70;58.00;;;;;;5017731;28;20099;-64
2022/08/07 13:49:42;;;;;;;3.55;3.25;;;21.70;58.00;;;;;;5047072;28;20051;-62
2022/08/07 13:52:31;;;;;;;3.00;2.80;;;21.70;57.80;;;;;;5048864;28;20041;-62
2022/08/07 13:55:13;;;;;;;3.40;3.08;;;21.70;57.80;;;;;;5048578;28;20692;-61
2022/08/07 14:01:05;;;;;;;2.80;2.60;;;21.70;57.60;;;;;;5048008;28;20141;-61
2022/08/07 14:03:39;;;;;;;4.38;3.97;;;21.70;57.90;;;;;;5048280;28;20111;-61
2022/08/07 14:06:37;;;;;;;3.55;3.25;;;21.70;57.80;;;;;;5045326;28;20052;-61
2022/08/07 14:09:08;;;;;;;3.53;3.22;;;21.60;57.70;;;;;;5048395;28;20520;-61
2022/08/07 14:11:53;;;;;;;3.63;3.33;;;21.70;58.00;;;;;;5047577;28;20333;-61
2022/08/07 14:14:44;;;;;;;3.53;3.22;;;21.70;58.00;;;;;;5048322;28;20414;-61
2022/08/07 14:17:12;;;;;;;;;;;21.70;58.10;;;;;;5048601;28;20498;-63
2022/08/07 14:20:17;;;;;;;4.32;3.92;;;21.70;58.00;;;;;;5046718;28;20263;-61
2022/08/07 14:23:18;;;;;;;3.30;3.10;;;21.70;58.00;;;;;;5046182;28;20076;-61
2022/08/07 14:26:19;;;;;;;4.35;3.95;;;21.70;57.70;;;;;;5047104;28;20041;-61